Terminal Aerodrome Forecast
Issued by NWS Milwaukee/Sullivan, WI

Home | Current Version | Previous Version | Text Only | Print | Product List | Glossary On
Versions: 1 2 3 4 5 6 7 8 9 10 11 12 13 14 15 16 17 18 19 20 21 22 23 24 25 26 27 28 29 30 31 32 33 34 35 36 37 38 39 40 41 42 43 44 45 46 47 48 49 50
000
FTUS43 KMKX 160520
TAFMKE
TAF
KMKE 160520Z 1606/1712 18004KT P6SM SCT030 OVC045
     FM161400 09007KT P6SM OVC060
     FM161800 09008KT P6SM BKN030
     FM162300 09008KT P6SM BKN040
     FM170200 11005KT P6SM BKN050
     FM171000 09007KT P6SM BKN025=

USA.gov is the U.S. government's official web portal to all federal, state and local government web resources and services.